Time;durP1;ratioP1;P1;durP2;ratioP2;P2;SDS_P1;SDS_P2;PMS_P1;PMS_P2;Temp;Humidity;BMP_temperature;BMP_pressure;BME280_temperature;BME280_humidity;BME280_pressure;Samples;Min_cycle;Max_cycle;Signal;HPM_P1;HPM_P2
2021/05/28 00:02:07;;;;;;;13.00;12.07;;;24.30;64.40;;;;;;3618244;39;20532;-48
2021/05/28 00:04:34;;;;;;;12.83;12.03;;;24.30;64.50;;;;;;3619134;39;20474;-48
2021/05/28 00:07:00;;;;;;;13.33;12.63;;;24.30;64.50;;;;;;3627681;39;20509;-48
2021/05/28 00:09:27;;;;;;;13.53;12.70;;;24.30;64.50;;;;;;3627770;39;20558;-48
2021/05/28 00:11:54;;;;;;;13.83;13.03;;;24.30;64.60;;;;;;3628164;39;20531;-48
2021/05/28 00:14:21;;;;;;;14.07;13.10;;;24.30;64.60;;;;;;3628264;39;20912;-50
2021/05/28 00:16:48;;;;;;;13.93;13.13;;;24.30;64.70;;;;;;3628261;39;20803;-49
2021/05/28 00:19:14;;;;;;;13.00;12.13;;;24.30;64.70;;;;;;3627066;39;20490;-48
2021/05/28 00:21:41;;;;;;;13.80;13.00;;;24.20;64.50;;;;;;3627966;39;20473;-48
2021/05/28 00:24:09;;;;;;;14.07;13.20;;;24.20;64.50;;;;;;3627462;39;20462;-48
2021/05/28 00:26:35;;;;;;;13.97;13.10;;;24.20;64.60;;;;;;3627990;39;20622;-48
2021/05/28 00:29:12;;;;;;;13.97;13.10;;;24.20;64.70;;;;;;3628587;39;20474;-48
2021/05/28 00:31:40;;;;;;;13.60;12.80;;;24.20;64.70;;;;;;3628256;39;20463;-48
2021/05/28 00:34:07;;;;;;;13.60;12.73;;;24.20;64.70;;;;;;3627548;39;20479;-48
2021/05/28 00:36:33;;;;;;;14.00;13.10;;;24.20;64.80;;;;;;3626712;39;20471;-48
2021/05/28 00:39:00;;;;;;;13.07;12.37;;;24.20;64.80;;;;;;3627104;39;20466;-48
2021/05/28 00:41:26;;;;;;;13.20;12.20;;;24.20;64.80;;;;;;3627248;39;20750;-48
2021/05/28 00:43:53;;;;;;;12.90;12.10;;;24.20;64.80;;;;;;3626800;39;21216;-47
2021/05/28 00:46:21;;;;;;;13.27;12.47;;;24.20;64.90;;;;;;3618063;39;20493;-48
2021/05/28 00:48:51;;;;;;;13.60;12.80;;;24.20;64.80;;;;;;3627760;39;20486;-47
2021/05/28 00:51:18;;;;;;;14.00;13.10;;;24.20;64.80;;;;;;3627278;39;20574;-48
2021/05/28 00:53:46;;;;;;;13.83;12.93;;;24.20;64.90;;;;;;3628095;39;20498;-48
2021/05/28 00:56:14;;;;;;;13.97;13.07;;;24.20;64.90;;;;;;3617996;39;20478;-49
2021/05/28 00:58:41;;;;;;;13.70;12.80;;;24.20;64.90;;;;;;3627212;39;20483;-47
2021/05/28 01:01:07;;;;;;;12.30;11.70;;;24.20;64.90;;;;;;3626890;39;20478;-48
2021/05/28 01:03:34;;;;;;;13.33;12.53;;;24.10;64.80;;;;;;3627548;39;20542;-48
2021/05/28 01:06:02;;;;;;;12.60;11.90;;;24.10;64.90;;;;;;3627747;39;20466;-48
2021/05/28 01:08:30;;;;;;;13.63;12.73;;;24.10;64.90;;;;;;3627619;39;20482;-48
2021/05/28 01:10:56;;;;;;;13.10;12.40;;;24.10;64.90;;;;;;3628211;39;20472;-47
2021/05/28 01:13:24;;;;;;;13.60;12.70;;;24.10;64.90;;;;;;3626587;39;20571;-48
2021/05/28 01:15:54;;;;;;;13.67;12.93;;;24.10;65.00;;;;;;3627012;39;20868;-49
2021/05/28 01:18:23;;;;;;;13.20;12.50;;;24.10;65.00;;;;;;3627671;39;20725;-48
2021/05/28 01:20:52;;;;;;;13.67;12.80;;;24.10;65.00;;;;;;3627361;39;20491;-48
2021/05/28 01:23:20;;;;;;;12.70;11.90;;;24.10;65.10;;;;;;3627939;39;20794;-48
2021/05/28 01:25:47;;;;;;;13.13;12.23;;;24.10;65.10;;;;;;3628276;39;20483;-48
2021/05/28 01:28:14;;;;;;;13.10;12.40;;;24.10;65.10;;;;;;3627730;39;20737;-48
2021/05/28 01:30:41;;;;;;;12.80;12.00;;;24.10;65.10;;;;;;3618608;39;20478;-47
2021/05/28 01:33:09;;;;;;;12.53;11.73;;;24.00;65.00;;;;;;3627780;39;20691;-48
2021/05/28 01:35:36;;;;;;;13.63;12.83;;;24.00;65.00;;;;;;3627551;39;20502;-49
2021/05/28 01:38:05;;;;;;;13.63;12.73;;;24.10;65.20;;;;;;3627375;39;20622;-49
2021/05/28 01:40:33;;;;;;;13.53;12.73;;;24.00;65.10;;;;;;3627238;39;20482;-48
2021/05/28 01:43:00;;;;;;;13.03;12.33;;;24.00;65.10;;;;;;3628111;39;20792;-48
2021/05/28 01:45:27;;;;;;;14.23;13.43;;;24.00;65.10;;;;;;3626768;39;20474;-48
2021/05/28 01:47:53;;;;;;;13.73;12.93;;;24.00;65.00;;;;;;3627399;39;20577;-48
2021/05/28 01:50:20;;;;;;;13.03;12.23;;;24.00;65.10;;;;;;3626942;39;20478;-48
2021/05/28 01:52:47;;;;;;;14.90;13.90;;;24.00;65.20;;;;;;3627386;39;20479;-50
2021/05/28 01:55:15;;;;;;;13.13;12.33;;;24.00;65.20;;;;;;3626953;39;20478;-48
2021/05/28 01:57:43;;;;;;;13.10;12.47;;;24.00;65.20;;;;;;3619095;39;20479;-48
2021/05/28 02:00:13;;;;;;;13.60;12.83;;;24.00;65.20;;;;;;3618378;39;20475;-48
2021/05/28 02:02:40;;;;;;;14.60;13.70;;;24.00;65.20;;;;;;3627412;39;20744;-48
2021/05/28 02:05:08;;;;;;;13.77;12.80;;;24.00;65.20;;;;;;3617757;39;20522;-48
2021/05/28 02:07:36;;;;;;;13.30;12.50;;;24.10;65.30;;;;;;3617873;39;20555;-48
2021/05/28 02:10:04;;;;;;;13.30;12.50;;;24.00;65.30;;;;;;3627276;39;20497;-48
2021/05/28 02:12:31;;;;;;;13.77;12.90;;;24.00;65.30;;;;;;3627731;39;20482;-48
2021/05/28 02:15:00;;;;;;;13.30;12.60;;;24.00;65.40;;;;;;3627689;39;20483;-48
2021/05/28 02:17:27;;;;;;;13.60;12.80;;;24.00;65.30;;;;;;3627210;39;20479;-48
2021/05/28 02:19:55;;;;;;;13.30;12.43;;;24.00;65.40;;;;;;3627445;39;20482;-49
2021/05/28 02:22:22;;;;;;;13.00;12.30;;;24.00;65.40;;;;;;3627536;39;20470;-48
2021/05/28 02:24:48;;;;;;;13.30;12.40;;;24.00;65.40;;;;;;3628049;39;20878;-48
2021/05/28 02:27:15;;;;;;;13.13;12.33;;;23.90;65.40;;;;;;3627362;39;20478;-48
2021/05/28 02:29:41;;;;;;;12.43;11.83;;;23.90;65.40;;;;;;3627242;39;20501;-47
2021/05/28 02:32:09;;;;;;;12.80;12.10;;;23.90;65.40;;;;;;3626264;39;20835;-49
2021/05/28 02:34:37;;;;;;;12.77;12.07;;;23.90;65.40;;;;;;3617745;39;20579;-48
2021/05/28 02:37:04;;;;;;;13.33;12.63;;;23.90;65.50;;;;;;3626854;39;20473;-48
2021/05/28 02:39:31;;;;;;;13.00;12.20;;;23.90;65.50;;;;;;3626427;39;20493;-49
2021/05/28 02:41:57;;;;;;;12.90;12.10;;;23.90;65.60;;;;;;3627532;39;21100;-48
2021/05/28 02:44:24;;;;;;;12.83;12.07;;;23.90;65.60;;;;;;3627383;39;20483;-48
2021/05/28 02:46:50;;;;;;;13.27;12.47;;;23.90;65.60;;;;;;3627148;39;20563;-48
2021/05/28 02:49:18;;;;;;;12.77;12.07;;;23.90;66.30;;;;;;3617672;39;20968;-48
2021/05/28 02:51:45;;;;;;;13.27;12.57;;;23.90;65.60;;;;;;3626786;39;20474;-49
2021/05/28 02:54:11;;;;;;;13.50;12.70;;;23.90;65.60;;;;;;3626996;39;20585;-48
2021/05/28 02:56:38;;;;;;;12.77;12.17;;;23.90;65.70;;;;;;3628174;39;20751;-48
2021/05/28 02:59:04;;;;;;;12.67;11.97;;;23.90;65.60;;;;;;3627329;39;20494;-48
2021/05/28 03:01:32;;;;;;;12.80;12.17;;;23.90;65.70;;;;;;3625814;39;20902;-48
2021/05/28 03:03:59;;;;;;;14.00;13.20;;;23.90;65.60;;;;;;3626906;39;20505;-48
2021/05/28 03:06:26;;;;;;;13.57;12.83;;;23.90;65.60;;;;;;3626159;39;20478;-48
2021/05/28 03:08:53;;;;;;;13.47;12.80;;;23.90;65.60;;;;;;3626971;39;20948;-48
2021/05/28 03:11:20;;;;;;;13.47;12.80;;;23.90;65.60;;;;;;3627555;39;20509;-48
2021/05/28 03:13:46;;;;;;;14.20;13.37;;;23.90;65.60;;;;;;3627413;39;20910;-48
2021/05/28 03:16:13;;;;;;;12.53;11.93;;;23.80;65.60;;;;;;3626354;39;20493;-48
2021/05/28 03:18:47;;;;;;;13.50;12.80;;;23.80;65.60;;;;;;3626665;39;20506;-48
2021/05/28 03:21:23;;;;;;;13.90;13.10;;;23.80;65.60;;;;;;3627202;39;20490;-48
2021/05/28 03:23:53;;;;;;;13.93;13.23;;;23.80;65.60;;;;;;3627141;39;20466;-48
2021/05/28 03:26:20;;;;;;;14.27;13.60;;;23.80;65.60;;;;;;3626524;39;20486;-48
2021/05/28 03:28:46;;;;;;;14.37;13.67;;;23.80;65.70;;;;;;3627235;39;20467;-48
2021/05/28 03:31:13;;;;;;;13.57;12.93;;;23.80;65.70;;;;;;3627669;39;20471;-49
2021/05/28 03:33:40;;;;;;;14.83;14.13;;;23.80;65.70;;;;;;3626638;39;20469;-48
2021/05/28 03:36:07;;;;;;;14.73;13.93;;;23.80;65.70;;;;;;3627433;39;20485;-48
2021/05/28 03:38:34;;;;;;;14.90;14.10;;;23.80;65.70;;;;;;3625847;39;20467;-48
2021/05/28 03:41:04;;;;;;;14.90;14.00;;;23.80;65.70;;;;;;3626768;39;20536;-48
2021/05/28 03:43:31;;;;;;;14.90;14.10;;;23.90;65.80;;;;;;3626119;39;20482;-48
2021/05/28 03:45:58;;;;;;;14.37;13.60;;;23.90;65.70;;;;;;3627053;39;20510;-48
2021/05/28 03:48:24;;;;;;;14.10;13.40;;;23.90;65.70;;;;;;3626046;39;20483;-48
2021/05/28 03:50:51;;;;;;;15.47;14.67;;;23.90;65.70;;;;;;3625027;39;21177;-48
2021/05/28 03:53:18;;;;;;;13.33;12.73;;;23.90;65.60;;;;;;3625076;39;20536;-48
2021/05/28 03:55:44;;;;;;;13.77;13.07;;;24.00;65.70;;;;;;3625727;39;20467;-48
2021/05/28 03:58:12;;;;;;;14.70;13.90;;;24.00;65.60;;;;;;3626154;39;20745;-47
2021/05/28 04:00:39;;;;;;;13.93;13.33;;;24.00;65.60;;;;;;3625184;39;20481;-49
2021/05/28 04:03:06;;;;;;;14.80;14.10;;;24.00;65.50;;;;;;3624717;39;20473;-48
2021/05/28 04:05:33;;;;;;;13.57;12.97;;;24.00;65.50;;;;;;3624892;39;20489;-48
2021/05/28 04:08:00;;;;;;;14.07;13.30;;;24.10;65.50;;;;;;3624316;39;20533;-48
2021/05/28 04:10:27;;;;;;;13.20;12.60;;;24.10;65.40;;;;;;3624906;39;20475;-48
2021/05/28 04:12:53;;;;;;;14.83;13.93;;;24.10;65.30;;;;;;3624864;39;20573;-49
2021/05/28 04:15:21;;;;;;;14.20;13.40;;;24.20;65.30;;;;;;3626470;39;20470;-48
2021/05/28 04:17:48;;;;;;;14.33;13.53;;;24.20;65.20;;;;;;3626060;39;20566;-49
2021/05/28 04:20:15;;;;;;;14.00;13.20;;;24.20;65.20;;;;;;3617388;39;20540;-48
2021/05/28 04:22:42;;;;;;;14.33;13.53;;;24.20;65.20;;;;;;3624772;39;20476;-48
2021/05/28 04:25:10;;;;;;;15.20;14.50;;;24.20;65.20;;;;;;3625307;39;20479;-48
2021/05/28 04:27:36;;;;;;;14.37;13.57;;;24.20;65.10;;;;;;3626800;39;20490;-48
2021/05/28 04:30:05;;;;;;;14.20;13.50;;;24.30;65.20;;;;;;3625473;39;20474;-48
2021/05/28 04:32:32;;;;;;;14.67;13.87;;;24.30;65.10;;;;;;3615467;39;20738;-48
2021/05/28 04:34:59;;;;;;;14.13;13.43;;;24.30;65.00;;;;;;3625666;39;20494;-48
2021/05/28 04:37:25;;;;;;;14.03;13.23;;;24.30;65.00;;;;;;3625619;39;21306;-48
2021/05/28 04:39:52;;;;;;;14.60;13.87;;;24.40;65.00;;;;;;3624705;39;20524;-49
2021/05/28 04:42:18;;;;;;;14.30;13.70;;;24.40;65.00;;;;;;3624088;39;20475;-49
2021/05/28 04:44:45;;;;;;;15.53;14.70;;;24.40;64.90;;;;;;3624113;39;21050;-48
2021/05/28 04:47:11;;;;;;;14.40;13.60;;;24.40;64.90;;;;;;3623496;39;20891;-49
2021/05/28 04:49:39;;;;;;;14.37;13.67;;;24.40;64.80;;;;;;3623668;39;20467;-49
2021/05/28 04:52:06;;;;;;;14.90;14.10;;;24.50;64.90;;;;;;3623599;39;20470;-48
2021/05/28 04:54:33;;;;;;;15.17;14.37;;;24.50;64.80;;;;;;3624120;39;20560;-49
2021/05/28 04:56:59;;;;;;;14.93;14.23;;;24.50;64.70;;;;;;3622830;39;20493;-48
2021/05/28 04:59:26;;;;;;;14.07;13.47;;;24.50;64.70;;;;;;3621169;39;20896;-49
2021/05/28 05:01:52;;;;;;;13.63;12.93;;;24.60;64.80;;;;;;3623024;39;20497;-48
2021/05/28 05:04:19;;;;;;;14.40;13.70;;;24.60;64.70;;;;;;3621867;39;20474;-48
2021/05/28 05:06:46;;;;;;;14.20;13.50;;;24.60;64.60;;;;;;3622204;39;20693;-48
2021/05/28 05:09:13;;;;;;;14.10;13.40;;;24.60;64.50;;;;;;3621100;39;20481;-48
2021/05/28 05:11:40;;;;;;;14.60;13.90;;;24.60;64.50;;;;;;3621457;39;20533;-48
2021/05/28 05:14:06;;;;;;;14.63;13.93;;;24.70;64.60;;;;;;3621609;39;20561;-49
2021/05/28 05:16:34;;;;;;;14.10;13.40;;;24.70;64.60;;;;;;3619967;39;20467;-48
2021/05/28 05:19:01;;;;;;;13.90;13.20;;;24.70;64.50;;;;;;3619267;39;21140;-48
2021/05/28 05:21:27;;;;;;;14.97;14.17;;;24.70;64.50;;;;;;3619648;39;20474;-48
2021/05/28 05:23:55;;;;;;;14.30;13.60;;;24.70;64.40;;;;;;3617828;39;20900;-48
2021/05/28 05:26:21;;;;;;;14.37;13.67;;;24.80;64.50;;;;;;3616377;39;20482;-48
2021/05/28 05:28:48;;;;;;;15.60;14.70;;;24.80;64.50;;;;;;3616825;39;20467;-48
2021/05/28 05:31:15;;;;;;;15.27;14.50;;;24.80;64.40;;;;;;3615036;39;20476;-49
2021/05/28 05:33:41;;;;;;;15.10;14.30;;;24.80;64.40;;;;;;3616969;39;20486;-48
2021/05/28 05:36:08;;;;;;;14.37;13.67;;;24.80;64.40;;;;;;3617549;39;20482;-48
2021/05/28 05:38:35;;;;;;;14.50;13.60;;;24.80;64.30;;;;;;3617347;39;20626;-48
2021/05/28 05:41:02;;;;;;;14.07;13.37;;;24.80;64.30;;;;;;3615095;39;20487;-48
2021/05/28 05:43:29;;;;;;;13.70;13.00;;;24.90;64.30;;;;;;3615035;39;20478;-48
2021/05/28 05:45:55;;;;;;;13.90;13.13;;;24.90;64.30;;;;;;3616361;39;20471;-48
2021/05/28 05:48:22;;;;;;;13.67;13.07;;;24.90;64.30;;;;;;3615426;39;20511;-48
2021/05/28 05:50:49;;;;;;;14.27;13.57;;;24.90;64.30;;;;;;3616964;39;20497;-48
2021/05/28 05:53:15;;;;;;;14.87;13.97;;;24.90;64.30;;;;;;3612750;39;20482;-48
2021/05/28 05:55:42;;;;;;;13.70;13.10;;;25.00;64.20;;;;;;3613723;39;20511;-49
2021/05/28 05:58:09;;;;;;;13.83;13.17;;;25.00;64.20;;;;;;3614293;39;20876;-48
2021/05/28 06:00:36;;;;;;;13.97;13.27;;;25.00;64.20;;;;;;3614562;39;20489;-49
2021/05/28 06:03:03;;;;;;;14.13;13.53;;;25.00;64.10;;;;;;3613615;39;20483;-48
2021/05/28 06:05:30;;;;;;;15.00;14.30;;;25.00;64.10;;;;;;3612933;39;20501;-48
2021/05/28 06:07:57;;;;;;;14.57;13.97;;;25.00;64.00;;;;;;3610862;39;20869;-48
2021/05/28 06:10:23;;;;;;;14.30;13.67;;;25.00;64.00;;;;;;3602923;39;21463;-48
2021/05/28 06:12:50;;;;;;;15.07;14.37;;;25.00;64.00;;;;;;3611288;39;20479;-48
2021/05/28 06:15:17;;;;;;;14.33;13.63;;;25.10;64.00;;;;;;3606409;39;20490;-49
2021/05/28 06:17:44;;;;;;;14.60;14.00;;;25.10;63.90;;;;;;3609418;39;20724;-48
2021/05/28 06:20:11;;;;;;;14.80;14.10;;;25.10;63.90;;;;;;3607920;39;20487;-49
2021/05/28 06:22:39;;;;;;;15.20;14.40;;;25.10;63.90;;;;;;3606105;39;20545;-49
2021/05/28 06:25:07;;;;;;;14.70;14.00;;;25.10;63.80;;;;;;3608453;39;20494;-51
2021/05/28 06:27:34;;;;;;;14.00;13.40;;;25.10;63.80;;;;;;3609092;39;21093;-48
2021/05/28 06:30:00;;;;;;;14.77;14.07;;;25.10;63.80;;;;;;3607971;39;20739;-48
2021/05/28 06:32:27;;;;;;;13.97;13.37;;;25.10;63.80;;;;;;3609721;39;20486;-48
2021/05/28 06:34:54;;;;;;;14.37;13.67;;;25.20;63.90;;;;;;3610685;39;20479;-48
2021/05/28 06:37:21;;;;;;;13.67;12.97;;;25.20;63.80;;;;;;3611057;39;20552;-48
2021/05/28 06:39:47;;;;;;;13.10;12.50;;;25.20;63.80;;;;;;3609280;39;20740;-48
2021/05/28 06:42:14;;;;;;;13.90;13.30;;;25.20;63.80;;;;;;3610793;39;21355;-48
2021/05/28 06:44:40;;;;;;;13.87;13.27;;;25.20;63.70;;;;;;3611499;39;20578;-48
2021/05/28 06:47:07;;;;;;;14.00;13.40;;;25.20;63.70;;;;;;3609335;39;20505;-48
2021/05/28 06:49:35;;;;;;;14.50;13.80;;;25.20;63.70;;;;;;3608202;39;20982;-48
2021/05/28 06:52:01;;;;;;;14.47;13.67;;;25.20;63.70;;;;;;3608994;39;20489;-48
2021/05/28 06:54:30;;;;;;;14.13;13.53;;;25.20;63.60;;;;;;3611021;39;20482;-49
2021/05/28 06:56:57;;;;;;;13.83;13.13;;;25.20;63.60;;;;;;3611129;39;20545;-48
2021/05/28 06:59:24;;;;;;;13.70;13.07;;;25.20;63.70;;;;;;3611471;39;20486;-48
2021/05/28 07:01:50;;;;;;;13.57;12.90;;;25.20;63.60;;;;;;3606180;39;20471;-48
2021/05/28 07:04:17;;;;;;;13.93;13.23;;;25.20;63.60;;;;;;3602102;39;20621;-49
2021/05/28 07:06:44;;;;;;;13.27;12.67;;;25.20;63.60;;;;;;3605348;39;20490;-48
2021/05/28 07:09:11;;;;;;;14.17;13.40;;;25.20;63.60;;;;;;3610376;39;20478;-48
2021/05/28 07:11:38;;;;;;;14.37;13.67;;;25.30;63.80;;;;;;3606673;39;20971;-48
2021/05/28 07:14:04;;;;;;;14.20;13.40;;;25.30;63.70;;;;;;3606854;39;20571;-48
2021/05/28 07:16:31;;;;;;;14.23;13.50;;;25.30;63.80;;;;;;3605562;39;20879;-48
2021/05/28 07:18:59;;;;;;;14.30;13.40;;;25.30;63.80;;;;;;3606165;39;20478;-48
2021/05/28 07:21:29;;;;;;;15.00;14.30;;;25.30;63.90;;;;;;3588379;39;20495;-48
2021/05/28 07:23:58;;;;;;;14.20;13.40;;;25.30;63.90;;;;;;3595614;39;20479;-48
2021/05/28 07:26:25;;;;;;;14.67;13.70;;;25.30;63.80;;;;;;3590104;39;20502;-48
2021/05/28 07:28:52;;;;;;;14.87;14.13;;;25.30;63.80;;;;;;3589293;39;20543;-48
2021/05/28 07:31:20;;;;;;;13.97;13.30;;;25.30;63.90;;;;;;3597213;39;20867;-48
2021/05/28 07:33:47;;;;;;;14.20;13.50;;;25.30;63.90;;;;;;3599336;39;20494;-48
2021/05/28 07:36:14;;;;;;;14.73;13.83;;;25.30;63.90;;;;;;3603862;39;20478;-48
2021/05/28 07:38:41;;;;;;;14.50;13.60;;;25.30;64.00;;;;;;3606936;39;20478;-49
2021/05/28 07:41:09;;;;;;;14.87;13.97;;;25.30;64.00;;;;;;3605614;39;20581;-48
2021/05/28 07:43:36;;;;;;;15.13;14.23;;;25.30;64.10;;;;;;3605919;39;20574;-48
2021/05/28 07:46:03;;;;;;;14.83;14.03;;;25.30;64.20;;;;;;3597292;39;20267;-48
2021/05/28 07:48:30;;;;;;;14.87;13.77;;;25.40;64.20;;;;;;3598180;39;20478;-48
2021/05/28 07:50:58;;;;;;;13.80;12.87;;;25.40;64.20;;;;;;3608266;39;20690;-48
2021/05/28 07:53:27;;;;;;;15.30;14.50;;;25.40;64.20;;;;;;3611370;39;20474;-48
2021/05/28 07:55:55;;;;;;;14.27;13.20;;;25.40;64.20;;;;;;3609293;39;20606;-47
2021/05/28 07:58:23;;;;;;;15.80;14.43;;;25.30;63.10;;;;;;3609182;39;20534;-47
2021/05/28 08:00:50;;;;;;;14.73;13.53;;;25.20;63.80;;;;;;3606889;39;20518;-48
2021/05/28 08:03:16;;;;;;;13.53;12.83;;;25.20;64.20;;;;;;3595327;39;20502;-48
2021/05/28 08:05:45;;;;;;;14.23;13.33;;;25.30;64.30;;;;;;3598847;39;20503;-47
2021/05/28 08:08:12;;;;;;;14.40;13.40;;;25.30;64.30;;;;;;3599273;39;20481;-47
2021/05/28 08:10:39;;;;;;;14.70;13.50;;;25.30;64.30;;;;;;3599799;39;20471;-47
2021/05/28 08:13:05;;;;;;;14.10;12.97;;;25.30;64.20;;;;;;3597122;39;20499;-48
2021/05/28 08:15:33;;;;;;;14.17;13.13;;;25.30;64.30;;;;;;3602468;39;20486;-47
2021/05/28 08:18:01;;;;;;;14.33;13.23;;;25.30;64.20;;;;;;3610239;39;20478;-47
2021/05/28 08:20:28;;;;;;;14.60;13.40;;;25.30;64.30;;;;;;3608329;39;20471;-47
2021/05/28 08:22:58;;;;;;;12.87;12.17;;;25.30;64.30;;;;;;3600376;39;20482;-47
2021/05/28 08:27:54;;;;;;;13.03;12.43;;;25.30;64.40;;;;;;3579806;39;20732;-47
2021/05/28 08:30:22;;;;;;;13.40;12.47;;;25.30;64.90;;;;;;3581807;39;20487;-47
2021/05/28 08:32:49;;;;;;;14.97;14.03;;;25.30;64.40;;;;;;3580961;40;20492;-48
2021/05/28 08:35:17;;;;;;;13.80;12.90;;;25.30;64.50;;;;;;3579277;40;20492;-47
2021/05/28 08:37:45;;;;;;;13.57;12.77;;;25.30;64.50;;;;;;3577631;40;20485;-47
2021/05/28 08:40:15;;;;;;;13.33;12.43;;;25.30;64.50;;;;;;3580031;39;20563;-47
2021/05/28 08:42:44;;;;;;;14.30;13.40;;;25.30;64.60;;;;;;3581101;40;20571;-47
2021/05/28 08:45:14;;;;;;;13.07;12.33;;;25.30;64.60;;;;;;3578634;39;20525;-47
2021/05/28 08:47:41;;;;;;;13.77;12.60;;;25.30;64.60;;;;;;3577772;40;20492;-48
2021/05/28 08:50:09;;;;;;;14.20;13.20;;;25.30;64.60;;;;;;3579897;39;20512;-47
2021/05/28 08:52:39;;;;;;;14.40;13.30;;;25.30;64.60;;;;;;3612166;39;20940;-47
2021/05/28 08:55:08;;;;;;;12.63;12.03;;;25.30;64.60;;;;;;3609519;39;20466;-47
2021/05/28 08:57:35;;;;;;;13.67;12.53;;;25.30;64.60;;;;;;3607483;39;20482;-47
2021/05/28 09:00:04;;;;;;;12.83;12.13;;;25.30;64.60;;;;;;3599085;39;20719;-47
2021/05/28 09:02:34;;;;;;;12.90;12.20;;;25.30;64.70;;;;;;3608584;39;20471;-48
2021/05/28 09:05:08;;;;;;;13.60;12.80;;;25.30;64.70;;;;;;3608336;39;20486;-47
2021/05/28 09:07:35;;;;;;;13.03;12.33;;;25.20;64.60;;;;;;3609101;39;20483;-47
2021/05/28 09:10:25;;;;;;;14.70;13.90;;;25.20;64.60;;;;;;3607698;39;20486;-47
2021/05/28 09:12:51;;;;;;;13.40;12.60;;;25.20;64.70;;;;;;3603621;39;20915;-48
2021/05/28 09:15:19;;;;;;;13.80;13.00;;;25.20;64.70;;;;;;3607252;39;20482;-47
2021/05/28 09:17:53;;;;;;;13.40;12.63;;;25.20;64.70;;;;;;3607872;39;20586;-47
2021/05/28 09:20:20;;;;;;;14.50;13.80;;;25.20;64.70;;;;;;3598411;39;20857;-47
2021/05/28 09:22:48;;;;;;;14.20;13.20;;;25.20;64.70;;;;;;3600625;39;20483;-46
2021/05/28 09:25:18;;;;;;;13.67;12.93;;;25.20;64.70;;;;;;3598133;39;20611;-48
2021/05/28 09:27:50;;;;;;;13.90;13.10;;;25.10;64.70;;;;;;3602392;39;20486;-47
2021/05/28 09:30:18;;;;;;;14.60;13.70;;;25.10;64.80;;;;;;3610560;39;20474;-48
2021/05/28 09:32:48;;;;;;;12.87;12.10;;;25.10;64.80;;;;;;3607698;39;20482;-47
2021/05/28 09:35:18;;;;;;;13.27;12.57;;;25.10;64.90;;;;;;3606389;39;20486;-48
2021/05/28 09:37:50;;;;;;;12.83;12.13;;;25.10;64.90;;;;;;3605742;39;20486;-46
2021/05/28 09:40:20;;;;;;;12.90;12.10;;;25.10;64.90;;;;;;3608749;39;20784;-48
2021/05/28 09:42:57;;;;;;;13.50;12.70;;;25.10;64.90;;;;;;3609335;39;20577;-47
2021/05/28 09:45:30;;;;;;;13.87;13.03;;;25.10;65.00;;;;;;3608895;39;20778;-48
2021/05/28 09:48:00;;;;;;;13.70;13.00;;;25.10;64.90;;;;;;3609966;39;20494;-48
2021/05/28 09:50:33;;;;;;;12.90;12.30;;;25.00;64.80;;;;;;3606746;39;20475;-47
2021/05/28 09:53:01;;;;;;;28.67;13.77;;;25.00;64.90;;;;;;3607126;39;20474;-47
2021/05/28 09:55:30;;;;;;;13.53;12.90;;;25.00;64.80;;;;;;3609408;39;20481;-47
2021/05/28 09:57:59;;;;;;;14.30;13.40;;;25.00;64.90;;;;;;3611444;39;20723;-48
2021/05/28 10:00:29;;;;;;;14.33;13.57;;;25.00;64.90;;;;;;3608670;39;21372;-47
2021/05/28 10:03:12;;;;;;;14.10;13.30;;;25.00;65.00;;;;;;3609532;39;20482;-47
2021/05/28 10:05:43;;;;;;;13.47;12.77;;;25.00;65.00;;;;;;3608941;39;20567;-47
2021/05/28 10:08:11;;;;;;;13.87;13.17;;;25.00;65.00;;;;;;3609452;39;20490;-48
2021/05/28 10:10:41;;;;;;;13.90;13.20;;;25.00;65.00;;;;;;3597993;39;20500;-48
2021/05/28 10:13:11;;;;;;;13.00;12.47;;;25.00;65.10;;;;;;3599285;39;20458;-47
2021/05/28 10:15:39;;;;;;;14.10;13.30;;;24.90;64.90;;;;;;3600996;39;20479;-48
2021/05/28 10:18:07;;;;;;;13.87;13.07;;;24.90;65.00;;;;;;3604898;39;21285;-47
2021/05/28 10:20:37;;;;;;;13.67;12.90;;;24.90;65.10;;;;;;3608910;39;20478;-47
2021/05/28 10:23:06;;;;;;;13.57;12.77;;;24.90;65.10;;;;;;3606000;39;20755;-47
2021/05/28 10:25:35;;;;;;;14.40;13.63;;;24.90;65.10;;;;;;3605142;39;20494;-47
2021/05/28 10:28:05;;;;;;;14.60;13.87;;;24.90;65.10;;;;;;3596064;39;20535;-47
2021/05/28 10:30:37;;;;;;;13.83;13.10;;;24.90;65.10;;;;;;3606627;39;20490;-47
2021/05/28 10:33:23;;;;;;;13.60;12.90;;;24.90;65.20;;;;;;3608163;39;20506;-47
2021/05/28 10:35:52;;;;;;;13.87;12.77;;;24.80;65.10;;;;;;3607279;39;20481;-47
2021/05/28 10:38:52;;;;;;;13.70;12.80;;;24.80;65.10;;;;;;3605664;39;20477;-47
2021/05/28 10:41:50;;;;;;;13.53;12.73;;;24.80;65.20;;;;;;3598436;39;20502;-48
2021/05/28 10:44:25;;;;;;;14.17;13.47;;;24.80;65.20;;;;;;3601366;39;20580;-47
2021/05/28 10:46:57;;;;;;;13.83;13.13;;;24.80;65.20;;;;;;3599264;39;20534;-48
2021/05/28 10:49:38;;;;;;;13.37;12.60;;;24.80;65.20;;;;;;3597950;39;20471;-48
2021/05/28 10:52:05;;;;;;;14.20;13.50;;;24.80;65.30;;;;;;3589167;39;20487;-47
2021/05/28 10:54:38;;;;;;;14.67;13.80;;;24.80;65.40;;;;;;3597298;39;20479;-47
2021/05/28 10:57:52;;;;;;;14.13;13.43;;;24.80;65.30;;;;;;3588524;39;20762;-48
2021/05/28 11:00:27;;;;;;;13.23;12.50;;;24.70;65.30;;;;;;3597987;39;20506;-47
2021/05/28 11:03:13;;;;;;;14.33;13.53;;;24.70;65.30;;;;;;3591675;39;20484;-47
2021/05/28 11:05:55;;;;;;;14.33;13.63;;;24.70;65.30;;;;;;3601596;39;20527;-48
2021/05/28 11:08:48;;;;;;;14.60;13.90;;;24.70;65.30;;;;;;3590058;39;20487;-47
2021/05/28 11:11:57;;;;;;;13.80;13.10;;;24.70;65.40;;;;;;3599517;39;20498;-47
2021/05/28 11:14:25;;;;;;;13.90;12.90;;;24.70;65.30;;;;;;3599283;39;20495;-47
2021/05/28 11:17:16;;;;;;;13.40;12.60;;;24.70;65.30;;;;;;3597418;39;20503;-48
2021/05/28 11:19:53;;;;;;;13.77;13.07;;;24.70;65.40;;;;;;3582553;39;20940;-47
2021/05/28 11:22:27;;;;;;;14.00;13.30;;;24.70;65.30;;;;;;3589618;39;20479;-47
2021/05/28 11:25:00;;;;;;;13.10;12.60;;;24.70;65.40;;;;;;3588761;39;20501;-48
2021/05/28 11:27:43;;;;;;;13.40;12.80;;;24.70;65.30;;;;;;3586062;39;20547;-47
2021/05/28 11:30:26;;;;;;;13.13;12.43;;;24.70;65.40;;;;;;3580082;40;20847;-50
2021/05/28 11:32:52;;;;;;;13.33;12.63;;;24.60;65.30;;;;;;3583155;40;20477;-47
2021/05/28 11:35:21;;;;;;;13.97;13.27;;;24.70;65.30;;;;;;3582554;39;20488;-47
2021/05/28 11:37:53;;;;;;;13.83;12.67;;;24.70;65.40;;;;;;3593136;39;20488;-48
2021/05/28 11:40:22;;;;;;;13.40;12.80;;;24.60;65.30;;;;;;3592358;39;20491;-47
2021/05/28 11:42:52;;;;;;;14.00;13.10;;;24.60;65.30;;;;;;3588659;39;20487;-47
2021/05/28 11:45:20;;;;;;;13.17;12.57;;;24.60;65.40;;;;;;3590744;39;20496;-47
2021/05/28 11:47:53;;;;;;;14.73;13.90;;;24.60;65.30;;;;;;3581417;39;20516;-47
2021/05/28 11:50:20;;;;;;;13.13;12.53;;;24.60;65.40;;;;;;3608646;39;20484;-47
2021/05/28 11:52:58;;;;;;;13.13;12.53;;;24.60;65.40;;;;;;3610028;39;20490;-47
2021/05/28 11:55:25;;;;;;;13.90;12.97;;;24.60;65.40;;;;;;3613176;39;20831;-47
2021/05/28 11:58:01;;;;;;;14.43;13.73;;;24.60;65.40;;;;;;3611727;39;20474;-47
2021/05/28 12:00:32;;;;;;;13.73;13.10;;;24.60;65.40;;;;;;3611849;39;20470;-47
2021/05/28 12:03:00;;;;;;;14.40;13.77;;;24.60;65.40;;;;;;3612918;39;20490;-47
2021/05/28 12:05:31;;;;;;;13.53;12.83;;;24.60;65.50;;;;;;3613678;39;21066;-47
2021/05/28 12:08:00;;;;;;;13.20;12.60;;;24.60;65.50;;;;;;3615479;39;20478;-47
2021/05/28 12:10:28;;;;;;;13.47;12.87;;;24.60;65.60;;;;;;3611407;39;20479;-47
2021/05/28 12:13:04;;;;;;;13.97;13.33;;;24.60;65.60;;;;;;3613173;39;20506;-47
2021/05/28 12:15:34;;;;;;;13.73;13.03;;;24.60;65.50;;;;;;3618125;39;20739;-47
2021/05/28 12:18:12;;;;;;;13.90;13.20;;;24.60;65.60;;;;;;3615109;39;20501;-47
2021/05/28 12:20:40;;;;;;;13.77;13.10;;;24.50;65.50;;;;;;3616053;39;20486;-47
2021/05/28 12:23:12;;;;;;;14.70;14.00;;;24.50;65.60;;;;;;3617324;39;20490;-47
2021/05/28 12:25:42;;;;;;;14.20;13.60;;;24.50;65.60;;;;;;3617436;39;20489;-47
2021/05/28 12:28:10;;;;;;;13.20;12.60;;;24.50;65.70;;;;;;3616537;39;20483;-47
2021/05/28 12:30:39;;;;;;;14.20;13.50;;;24.50;65.90;;;;;;3615434;39;20474;-47
2021/05/28 12:33:06;;;;;;;14.00;13.40;;;24.50;65.70;;;;;;3617176;39;20480;-47
2021/05/28 12:35:33;;;;;;;13.73;13.13;;;24.40;65.60;;;;;;3617062;39;20526;-47
2021/05/28 12:38:13;;;;;;;13.40;12.77;;;24.50;65.70;;;;;;3613672;39;20592;-47
2021/05/28 12:40:44;;;;;;;13.07;12.47;;;24.50;65.70;;;;;;3607237;39;20487;-47